sensor_id;sensor_type;location;lat;lon;timestamp;P1;durP1;ratioP1;P2;durP2;ratioP2
50709;SDS011;37033;49.994;21.992;2023-09-30T00:00:53;16.20;;;12.10;;
50709;SDS011;37033;49.994;21.992;2023-09-30T00:03:32;18.30;;;12.80;;
50709;SDS011;37033;49.994;21.992;2023-09-30T00:06:02;19.20;;;12.30;;
50709;SDS011;37033;49.994;21.992;2023-09-30T00:08:33;15.90;;;11.00;;
50709;SDS011;37033;49.994;21.992;2023-09-30T00:11:06;14.70;;;12.00;;
50709;SDS011;37033;49.994;21.992;2023-09-30T00:13:37;17.80;;;12.10;;
50709;SDS011;37033;49.994;21.992;2023-09-30T00:16:08;19.00;;;11.20;;
50709;SDS011;37033;49.994;21.992;2023-09-30T00:18:39;14.60;;;11.30;;
50709;SDS011;37033;49.994;21.992;2023-09-30T00:21:10;19.60;;;12.70;;
50709;SDS011;37033;49.994;21.992;2023-09-30T00:23:40;16.80;;;12.00;;
50709;SDS011;37033;49.994;21.992;2023-09-30T00:26:11;16.20;;;12.00;;
50709;SDS011;37033;49.994;21.992;2023-09-30T00:28:42;17.40;;;11.30;;
50709;SDS011;37033;49.994;21.992;2023-09-30T00:31:12;13.40;;;11.60;;
50709;SDS011;37033;49.994;21.992;2023-09-30T00:33:43;14.70;;;11.00;;
50709;SDS011;37033;49.994;21.992;2023-09-30T00:36:15;16.30;;;12.00;;
50709;SDS011;37033;49.994;21.992;2023-09-30T00:38:45;20.40;;;12.30;;
50709;SDS011;37033;49.994;21.992;2023-09-30T00:41:16;15.80;;;12.30;;
50709;SDS011;37033;49.994;21.992;2023-09-30T00:43:47;15.00;;;12.10;;
50709;SDS011;37033;49.994;21.992;2023-09-30T00:46:21;19.50;;;12.00;;
50709;SDS011;37033;49.994;21.992;2023-09-30T00:48:57;16.70;;;11.40;;
50709;SDS011;37033;49.994;21.992;2023-09-30T00:51:29;18.80;;;11.70;;
50709;SDS011;37033;49.994;21.992;2023-09-30T00:54:01;15.40;;;11.90;;
50709;SDS011;37033;49.994;21.992;2023-09-30T00:56:33;16.60;;;13.10;;
50709;SDS011;37033;49.994;21.992;2023-09-30T00:59:09;15.40;;;11.50;;
50709;SDS011;37033;49.994;21.992;2023-09-30T01:01:39;18.40;;;11.60;;
50709;SDS011;37033;49.994;21.992;2023-09-30T01:04:11;15.80;;;12.00;;
50709;SDS011;37033;49.994;21.992;2023-09-30T01:06:42;18.00;;;12.40;;
50709;SDS011;37033;49.994;21.992;2023-09-30T01:09:12;17.50;;;11.30;;
50709;SDS011;37033;49.994;21.992;2023-09-30T01:11:43;17.10;;;11.00;;
50709;SDS011;37033;49.994;21.992;2023-09-30T01:14:24;13.00;;;10.80;;
50709;SDS011;37033;49.994;21.992;2023-09-30T01:16:56;13.20;;;10.30;;
50709;SDS011;37033;49.994;21.992;2023-09-30T01:19:27;13.40;;;10.50;;
50709;SDS011;37033;49.994;21.992;2023-09-30T01:21:58;14.80;;;10.70;;
50709;SDS011;37033;49.994;21.992;2023-09-30T01:24:30;13.30;;;9.60;;
50709;SDS011;37033;49.994;21.992;2023-09-30T01:27:06;12.50;;;10.70;;
50709;SDS011;37033;49.994;21.992;2023-09-30T01:29:37;15.80;;;10.90;;
50709;SDS011;37033;49.994;21.992;2023-09-30T01:32:08;13.80;;;11.40;;
50709;SDS011;37033;49.994;21.992;2023-09-30T01:34:39;14.40;;;10.70;;
50709;SDS011;37033;49.994;21.992;2023-09-30T01:37:10;14.90;;;10.30;;
50709;SDS011;37033;49.994;21.992;2023-09-30T01:39:41;15.70;;;10.50;;
50709;SDS011;37033;49.994;21.992;2023-09-30T01:42:12;17.60;;;10.70;;
50709;SDS011;37033;49.994;21.992;2023-09-30T01:44:43;19.50;;;11.30;;
50709;SDS011;37033;49.994;21.992;2023-09-30T01:47:13;14.20;;;10.40;;
50709;SDS011;37033;49.994;21.992;2023-09-30T01:49:44;20.10;;;11.70;;
50709;SDS011;37033;49.994;21.992;2023-09-30T01:52:15;12.60;;;11.10;;
50709;SDS011;37033;49.994;21.992;2023-09-30T01:54:45;15.20;;;10.60;;
50709;SDS011;37033;49.994;21.992;2023-09-30T01:57:16;15.80;;;11.50;;
50709;SDS011;37033;49.994;21.992;2023-09-30T01:59:47;13.80;;;10.80;;
50709;SDS011;37033;49.994;21.992;2023-09-30T02:02:18;19.10;;;11.60;;
50709;SDS011;37033;49.994;21.992;2023-09-30T02:04:49;14.60;;;11.20;;
50709;SDS011;37033;49.994;21.992;2023-09-30T02:07:21;18.60;;;12.20;;
50709;SDS011;37033;49.994;21.992;2023-09-30T02:09:51;16.00;;;11.90;;
50709;SDS011;37033;49.994;21.992;2023-09-30T02:12:22;18.50;;;12.00;;
50709;SDS011;37033;49.994;21.992;2023-09-30T02:14:53;14.30;;;11.00;;
50709;SDS011;37033;49.994;21.992;2023-09-30T02:17:24;13.90;;;10.80;;
50709;SDS011;37033;49.994;21.992;2023-09-30T02:19:54;16.40;;;11.80;;
50709;SDS011;37033;49.994;21.992;2023-09-30T02:22:25;14.30;;;11.30;;
50709;SDS011;37033;49.994;21.992;2023-09-30T02:24:56;14.30;;;11.10;;
50709;SDS011;37033;49.994;21.992;2023-09-30T02:27:27;14.20;;;11.20;;
50709;SDS011;37033;49.994;21.992;2023-09-30T02:29:58;17.90;;;12.00;;
50709;SDS011;37033;49.994;21.992;2023-09-30T02:32:29;18.30;;;11.00;;
50709;SDS011;37033;49.994;21.992;2023-09-30T02:35:01;18.20;;;11.10;;
50709;SDS011;37033;49.994;21.992;2023-09-30T02:37:33;13.50;;;11.30;;
50709;SDS011;37033;49.994;21.992;2023-09-30T02:40:05;13.40;;;11.50;;
50709;SDS011;37033;49.994;21.992;2023-09-30T02:42:38;14.60;;;10.50;;
50709;SDS011;37033;49.994;21.992;2023-09-30T02:45:10;14.70;;;10.90;;
50709;SDS011;37033;49.994;21.992;2023-09-30T02:47:41;13.00;;;10.60;;
50709;SDS011;37033;49.994;21.992;2023-09-30T02:50:12;17.40;;;11.20;;
50709;SDS011;37033;49.994;21.992;2023-09-30T02:52:42;12.10;;;10.00;;
50709;SDS011;37033;49.994;21.992;2023-09-30T02:55:13;17.00;;;10.70;;
50709;SDS011;37033;49.994;21.992;2023-09-30T02:57:44;12.60;;;10.00;;
50709;SDS011;37033;49.994;21.992;2023-09-30T03:00:15;15.10;;;10.50;;
50709;SDS011;37033;49.994;21.992;2023-09-30T03:02:51;12.80;;;10.70;;
50709;SDS011;37033;49.994;21.992;2023-09-30T03:05:22;15.10;;;11.20;;
50709;SDS011;37033;49.994;21.992;2023-09-30T03:07:55;11.50;;;10.30;;
50709;SDS011;37033;49.994;21.992;2023-09-30T03:10:25;16.00;;;10.40;;
50709;SDS011;37033;49.994;21.992;2023-09-30T03:12:56;11.60;;;10.20;;
50709;SDS011;37033;49.994;21.992;2023-09-30T03:15:29;14.30;;;10.90;;
50709;SDS011;37033;49.994;21.992;2023-09-30T03:18:00;11.20;;;10.10;;
50709;SDS011;37033;49.994;21.992;2023-09-30T03:20:31;13.90;;;10.70;;
50709;SDS011;37033;49.994;21.992;2023-09-30T03:23:02;13.40;;;10.20;;
50709;SDS011;37033;49.994;21.992;2023-09-30T03:25:33;14.00;;;10.30;;
50709;SDS011;37033;49.994;21.992;2023-09-30T03:28:04;14.40;;;10.90;;
50709;SDS011;37033;49.994;21.992;2023-09-30T03:30:35;14.40;;;9.50;;
50709;SDS011;37033;49.994;21.992;2023-09-30T03:33:06;16.20;;;10.10;;
50709;SDS011;37033;49.994;21.992;2023-09-30T03:35:36;13.10;;;10.70;;
50709;SDS011;37033;49.994;21.992;2023-09-30T03:38:07;13.00;;;9.70;;
50709;SDS011;37033;49.994;21.992;2023-09-30T03:40:38;14.20;;;9.90;;
50709;SDS011;37033;49.994;21.992;2023-09-30T03:43:15;15.50;;;10.70;;
50709;SDS011;37033;49.994;21.992;2023-09-30T03:45:45;11.80;;;10.60;;
50709;SDS011;37033;49.994;21.992;2023-09-30T03:48:16;13.60;;;10.00;;
50709;SDS011;37033;49.994;21.992;2023-09-30T03:50:47;14.10;;;10.40;;
50709;SDS011;37033;49.994;21.992;2023-09-30T03:53:20;12.70;;;10.40;;
50709;SDS011;37033;49.994;21.992;2023-09-30T03:55:53;11.50;;;9.20;;
50709;SDS011;37033;49.994;21.992;2023-09-30T03:58:24;16.00;;;10.90;;
50709;SDS011;37033;49.994;21.992;2023-09-30T04:00:55;14.10;;;9.60;;
50709;SDS011;37033;49.994;21.992;2023-09-30T04:03:25;15.00;;;10.40;;
50709;SDS011;37033;49.994;21.992;2023-09-30T04:05:57;10.50;;;9.40;;
50709;SDS011;37033;49.994;21.992;2023-09-30T04:08:27;22.20;;;10.90;;
50709;SDS011;37033;49.994;21.992;2023-09-30T04:11:01;16.50;;;10.70;;
50709;SDS011;37033;49.994;21.992;2023-09-30T04:13:31;16.60;;;9.90;;
50709;SDS011;37033;49.994;21.992;2023-09-30T04:16:02;15.10;;;10.60;;
50709;SDS011;37033;49.994;21.992;2023-09-30T04:18:35;15.10;;;11.40;;
50709;SDS011;37033;49.994;21.992;2023-09-30T04:21:06;16.10;;;11.50;;
50709;SDS011;37033;49.994;21.992;2023-09-30T04:23:37;12.40;;;10.50;;
50709;SDS011;37033;49.994;21.992;2023-09-30T04:26:07;12.90;;;11.00;;
50709;SDS011;37033;49.994;21.992;2023-09-30T04:28:38;14.50;;;11.00;;
50709;SDS011;37033;49.994;21.992;2023-09-30T04:31:09;13.50;;;10.30;;
50709;SDS011;37033;49.994;21.992;2023-09-30T04:33:40;15.60;;;11.40;;
50709;SDS011;37033;49.994;21.992;2023-09-30T04:36:11;13.40;;;11.00;;
50709;SDS011;37033;49.994;21.992;2023-09-30T04:38:42;15.40;;;10.50;;
50709;SDS011;37033;49.994;21.992;2023-09-30T04:41:12;11.90;;;10.00;;
50709;SDS011;37033;49.994;21.992;2023-09-30T04:43:43;12.70;;;9.90;;
50709;SDS011;37033;49.994;21.992;2023-09-30T04:46:15;15.10;;;11.00;;
50709;SDS011;37033;49.994;21.992;2023-09-30T04:48:48;14.30;;;11.20;;
50709;SDS011;37033;49.994;21.992;2023-09-30T04:51:19;17.10;;;10.40;;
50709;SDS011;37033;49.994;21.992;2023-09-30T04:53:50;12.90;;;10.00;;
50709;SDS011;37033;49.994;21.992;2023-09-30T04:56:22;11.20;;;9.80;;
50709;SDS011;37033;49.994;21.992;2023-09-30T04:58:53;14.70;;;10.10;;
50709;SDS011;37033;49.994;21.992;2023-09-30T05:01:24;15.10;;;9.50;;
50709;SDS011;37033;49.994;21.992;2023-09-30T05:03:54;12.90;;;10.50;;
50709;SDS011;37033;49.994;21.992;2023-09-30T05:06:25;11.60;;;9.80;;
50709;SDS011;37033;49.994;21.992;2023-09-30T05:08:56;15.90;;;10.10;;
50709;SDS011;37033;49.994;21.992;2023-09-30T05:11:27;13.80;;;9.90;;
50709;SDS011;37033;49.994;21.992;2023-09-30T05:13:59;12.20;;;9.70;;
50709;SDS011;37033;49.994;21.992;2023-09-30T05:16:32;18.30;;;11.50;;
50709;SDS011;37033;49.994;21.992;2023-09-30T05:19:03;12.00;;;9.80;;
50709;SDS011;37033;49.994;21.992;2023-09-30T05:21:33;15.50;;;10.30;;
50709;SDS011;37033;49.994;21.992;2023-09-30T05:24:05;14.30;;;10.10;;
50709;SDS011;37033;49.994;21.992;2023-09-30T05:26:36;15.80;;;10.10;;
50709;SDS011;37033;49.994;21.992;2023-09-30T05:29:07;13.40;;;11.00;;
50709;SDS011;37033;49.994;21.992;2023-09-30T05:31:38;18.10;;;10.40;;
50709;SDS011;37033;49.994;21.992;2023-09-30T05:34:09;16.70;;;11.20;;
50709;SDS011;37033;49.994;21.992;2023-09-30T05:36:40;13.40;;;10.20;;
50709;SDS011;37033;49.994;21.992;2023-09-30T05:39:11;20.00;;;10.50;;
50709;SDS011;37033;49.994;21.992;2023-09-30T05:41:47;13.50;;;10.10;;
50709;SDS011;37033;49.994;21.992;2023-09-30T05:44:18;11.90;;;10.10;;
50709;SDS011;37033;49.994;21.992;2023-09-30T05:46:48;15.50;;;10.90;;
50709;SDS011;37033;49.994;21.992;2023-09-30T05:49:19;13.50;;;10.10;;
50709;SDS011;37033;49.994;21.992;2023-09-30T05:54:24;16.20;;;11.30;;
50709;SDS011;37033;49.994;21.992;2023-09-30T05:56:56;16.30;;;9.90;;
50709;SDS011;37033;49.994;21.992;2023-09-30T05:59:28;14.80;;;10.10;;
50709;SDS011;37033;49.994;21.992;2023-09-30T06:01:59;13.20;;;10.60;;
50709;SDS011;37033;49.994;21.992;2023-09-30T06:04:30;15.10;;;10.00;;
50709;SDS011;37033;49.994;21.992;2023-09-30T06:07:02;13.30;;;10.30;;
50709;SDS011;37033;49.994;21.992;2023-09-30T06:09:32;13.10;;;10.30;;
50709;SDS011;37033;49.994;21.992;2023-09-30T06:12:04;11.50;;;10.10;;
50709;SDS011;37033;49.994;21.992;2023-09-30T06:14:35;15.10;;;10.90;;
50709;SDS011;37033;49.994;21.992;2023-09-30T06:17:07;11.50;;;10.20;;
50709;SDS011;37033;49.994;21.992;2023-09-30T06:19:38;12.90;;;10.50;;
50709;SDS011;37033;49.994;21.992;2023-09-30T06:22:09;15.80;;;10.00;;
50709;SDS011;37033;49.994;21.992;2023-09-30T06:24:40;12.40;;;10.30;;
50709;SDS011;37033;49.994;21.992;2023-09-30T06:27:10;11.60;;;9.50;;
50709;SDS011;37033;49.994;21.992;2023-09-30T06:29:41;11.50;;;8.80;;
50709;SDS011;37033;49.994;21.992;2023-09-30T06:32:12;12.50;;;10.00;;
50709;SDS011;37033;49.994;21.992;2023-09-30T06:34:43;12.40;;;10.30;;
50709;SDS011;37033;49.994;21.992;2023-09-30T06:37:14;14.50;;;10.00;;
50709;SDS011;37033;49.994;21.992;2023-09-30T06:39:46;10.60;;;9.00;;
50709;SDS011;37033;49.994;21.992;2023-09-30T06:42:18;16.00;;;9.80;;
50709;SDS011;37033;49.994;21.992;2023-09-30T06:44:49;11.80;;;9.10;;
50709;SDS011;37033;49.994;21.992;2023-09-30T06:47:21;14.50;;;10.40;;
50709;SDS011;37033;49.994;21.992;2023-09-30T06:49:52;12.40;;;9.40;;
50709;SDS011;37033;49.994;21.992;2023-09-30T06:52:23;11.80;;;9.60;;
50709;SDS011;37033;49.994;21.992;2023-09-30T06:54:56;11.70;;;9.10;;
50709;SDS011;37033;49.994;21.992;2023-09-30T06:57:27;10.80;;;9.10;;
50709;SDS011;37033;49.994;21.992;2023-09-30T06:59:58;12.70;;;9.30;;
50709;SDS011;37033;49.994;21.992;2023-09-30T07:02:29;14.80;;;10.00;;
50709;SDS011;37033;49.994;21.992;2023-09-30T07:05:00;15.10;;;9.90;;
50709;SDS011;37033;49.994;21.992;2023-09-30T07:07:32;11.10;;;9.20;;
50709;SDS011;37033;49.994;21.992;2023-09-30T07:10:03;12.40;;;9.60;;
50709;SDS011;37033;49.994;21.992;2023-09-30T07:12:36;12.40;;;9.30;;
50709;SDS011;37033;49.994;21.992;2023-09-30T07:15:09;13.10;;;8.60;;
50709;SDS011;37033;49.994;21.992;2023-09-30T07:17:41;15.90;;;9.60;;
50709;SDS011;37033;49.994;21.992;2023-09-30T07:20:14;14.40;;;9.70;;
50709;SDS011;37033;49.994;21.992;2023-09-30T07:22:45;9.60;;;8.30;;
50709;SDS011;37033;49.994;21.992;2023-09-30T07:25:16;9.70;;;8.70;;
50709;SDS011;37033;49.994;21.992;2023-09-30T07:27:47;9.60;;;8.40;;
50709;SDS011;37033;49.994;21.992;2023-09-30T07:30:18;9.10;;;8.30;;
50709;SDS011;37033;49.994;21.992;2023-09-30T07:32:49;13.70;;;8.80;;
50709;SDS011;37033;49.994;21.992;2023-09-30T07:35:20;11.10;;;8.40;;
50709;SDS011;37033;49.994;21.992;2023-09-30T07:37:50;9.20;;;8.30;;
50709;SDS011;37033;49.994;21.992;2023-09-30T07:40:21;9.70;;;7.60;;
50709;SDS011;37033;49.994;21.992;2023-09-30T07:42:52;11.90;;;8.40;;
50709;SDS011;37033;49.994;21.992;2023-09-30T07:45:23;15.60;;;8.70;;
50709;SDS011;37033;49.994;21.992;2023-09-30T07:47:53;10.80;;;8.60;;
50709;SDS011;37033;49.994;21.992;2023-09-30T07:50:26;9.10;;;8.20;;
50709;SDS011;37033;49.994;21.992;2023-09-30T07:52:57;14.10;;;8.80;;
50709;SDS011;37033;49.994;21.992;2023-09-30T07:55:28;9.20;;;8.00;;
50709;SDS011;37033;49.994;21.992;2023-09-30T07:57:59;9.10;;;8.20;;
50709;SDS011;37033;49.994;21.992;2023-09-30T08:00:31;11.10;;;8.20;;
50709;SDS011;37033;49.994;21.992;2023-09-30T08:03:02;9.90;;;8.10;;
50709;SDS011;37033;49.994;21.992;2023-09-30T08:05:34;11.50;;;7.40;;
50709;SDS011;37033;49.994;21.992;2023-09-30T08:08:05;11.00;;;7.70;;
50709;SDS011;37033;49.994;21.992;2023-09-30T08:10:36;11.80;;;7.60;;
50709;SDS011;37033;49.994;21.992;2023-09-30T08:13:07;9.30;;;8.00;;
50709;SDS011;37033;49.994;21.992;2023-09-30T08:15:38;8.40;;;7.60;;
50709;SDS011;37033;49.994;21.992;2023-09-30T08:18:09;11.10;;;6.90;;
50709;SDS011;37033;49.994;21.992;2023-09-30T08:20:39;7.60;;;6.60;;
50709;SDS011;37033;49.994;21.992;2023-09-30T08:23:10;10.70;;;7.70;;
50709;SDS011;37033;49.994;21.992;2023-09-30T08:25:41;9.10;;;7.30;;
50709;SDS011;37033;49.994;21.992;2023-09-30T08:28:12;10.70;;;7.30;;
50709;SDS011;37033;49.994;21.992;2023-09-30T08:30:44;10.40;;;7.30;;
50709;SDS011;37033;49.994;21.992;2023-09-30T08:33:15;7.40;;;6.70;;
50709;SDS011;37033;49.994;21.992;2023-09-30T08:35:46;8.00;;;7.20;;
50709;SDS011;37033;49.994;21.992;2023-09-30T08:38:17;7.90;;;6.30;;
50709;SDS011;37033;49.994;21.992;2023-09-30T08:40:47;7.10;;;6.40;;
50709;SDS011;37033;49.994;21.992;2023-09-30T08:43:20;8.90;;;6.60;;
50709;SDS011;37033;49.994;21.992;2023-09-30T08:48:24;8.30;;;7.50;;
50709;SDS011;37033;49.994;21.992;2023-09-30T08:51:05;12.30;;;7.70;;
50709;SDS011;37033;49.994;21.992;2023-09-30T08:53:36;11.30;;;6.40;;
50709;SDS011;37033;49.994;21.992;2023-09-30T08:56:10;11.70;;;6.60;;
50709;SDS011;37033;49.994;21.992;2023-09-30T08:58:56;10.00;;;6.70;;
50709;SDS011;37033;49.994;21.992;2023-09-30T09:01:29;8.40;;;6.70;;
50709;SDS011;37033;49.994;21.992;2023-09-30T09:04:00;7.10;;;6.30;;
50709;SDS011;37033;49.994;21.992;2023-09-30T09:06:31;7.80;;;6.60;;
50709;SDS011;37033;49.994;21.992;2023-09-30T09:09:15;7.60;;;6.50;;
50709;SDS011;37033;49.994;21.992;2023-09-30T09:11:47;9.50;;;6.00;;
50709;SDS011;37033;49.994;21.992;2023-09-30T09:14:18;6.40;;;5.50;;
50709;SDS011;37033;49.994;21.992;2023-09-30T09:17:06;11.60;;;6.40;;
50709;SDS011;37033;49.994;21.992;2023-09-30T09:19:37;10.40;;;6.00;;
50709;SDS011;37033;49.994;21.992;2023-09-30T09:22:08;10.60;;;6.00;;
50709;SDS011;37033;49.994;21.992;2023-09-30T09:24:38;7.70;;;6.10;;
50709;SDS011;37033;49.994;21.992;2023-09-30T09:27:11;9.30;;;5.90;;
50709;SDS011;37033;49.994;21.992;2023-09-30T09:29:44;10.90;;;5.20;;
50709;SDS011;37033;49.994;21.992;2023-09-30T09:32:15;12.00;;;5.90;;
50709;SDS011;37033;49.994;21.992;2023-09-30T09:34:55;6.40;;;5.60;;
50709;SDS011;37033;49.994;21.992;2023-09-30T09:37:31;7.30;;;5.40;;
50709;SDS011;37033;49.994;21.992;2023-09-30T09:40:05;11.10;;;6.30;;
50709;SDS011;37033;49.994;21.992;2023-09-30T09:42:42;8.20;;;6.70;;
50709;SDS011;37033;49.994;21.992;2023-09-30T09:45:12;19.00;;;7.30;;
50709;SDS011;37033;49.994;21.992;2023-09-30T09:47:44;10.90;;;6.80;;
50709;SDS011;37033;49.994;21.992;2023-09-30T09:50:15;10.60;;;8.00;;
50709;SDS011;37033;49.994;21.992;2023-09-30T09:52:49;11.90;;;6.80;;
50709;SDS011;37033;49.994;21.992;2023-09-30T09:55:21;9.70;;;6.70;;
50709;SDS011;37033;49.994;21.992;2023-09-30T09:57:53;16.90;;;7.90;;
50709;SDS011;37033;49.994;21.992;2023-09-30T10:00:25;11.90;;;7.60;;
50709;SDS011;37033;49.994;21.992;2023-09-30T10:05:30;9.30;;;7.10;;
50709;SDS011;37033;49.994;21.992;2023-09-30T10:08:01;12.90;;;7.20;;
50709;SDS011;37033;49.994;21.992;2023-09-30T10:10:36;10.70;;;8.30;;
50709;SDS011;37033;49.994;21.992;2023-09-30T10:13:08;9.50;;;7.70;;
50709;SDS011;37033;49.994;21.992;2023-09-30T10:15:59;12.20;;;7.50;;
50709;SDS011;37033;49.994;21.992;2023-09-30T10:18:30;11.80;;;7.40;;
50709;SDS011;37033;49.994;21.992;2023-09-30T10:21:34;7.80;;;7.00;;
50709;SDS011;37033;49.994;21.992;2023-09-30T10:29:59;7.20;;;6.50;;
50709;SDS011;37033;49.994;21.992;2023-09-30T10:38:39;12.50;;;7.80;;
50709;SDS011;37033;49.994;21.992;2023-09-30T10:41:10;12.00;;;7.70;;
50709;SDS011;37033;49.994;21.992;2023-09-30T10:50:06;8.80;;;7.00;;
50709;SDS011;37033;49.994;21.992;2023-09-30T10:53:10;16.10;;;8.20;;
50709;SDS011;37033;49.994;21.992;2023-09-30T10:55:42;11.70;;;7.60;;
50709;SDS011;37033;49.994;21.992;2023-09-30T10:58:16;11.40;;;8.00;;
50709;SDS011;37033;49.994;21.992;2023-09-30T11:00:53;10.00;;;8.00;;
50709;SDS011;37033;49.994;21.992;2023-09-30T11:03:25;15.30;;;9.10;;
50709;SDS011;37033;49.994;21.992;2023-09-30T11:05:55;11.00;;;8.90;;
50709;SDS011;37033;49.994;21.992;2023-09-30T11:08:27;11.80;;;8.90;;
50709;SDS011;37033;49.994;21.992;2023-09-30T11:10:59;10.60;;;8.40;;
50709;SDS011;37033;49.994;21.992;2023-09-30T11:13:33;13.80;;;8.50;;
50709;SDS011;37033;49.994;21.992;2023-09-30T11:18:35;16.60;;;9.20;;
50709;SDS011;37033;49.994;21.992;2023-09-30T11:21:09;21.10;;;10.10;;
50709;SDS011;37033;49.994;21.992;2023-09-30T11:23:41;14.10;;;9.60;;
50709;SDS011;37033;49.994;21.992;2023-09-30T11:26:12;15.60;;;11.40;;
50709;SDS011;37033;49.994;21.992;2023-09-30T11:28:44;15.50;;;10.90;;
50709;SDS011;37033;49.994;21.992;2023-09-30T11:31:16;15.90;;;11.40;;
50709;SDS011;37033;49.994;21.992;2023-09-30T11:33:53;12.90;;;11.20;;
50709;SDS011;37033;49.994;21.992;2023-09-30T11:36:29;14.40;;;11.00;;
50709;SDS011;37033;49.994;21.992;2023-09-30T11:39:00;12.60;;;9.80;;
50709;SDS011;37033;49.994;21.992;2023-09-30T11:41:34;12.80;;;9.60;;
50709;SDS011;37033;49.994;21.992;2023-09-30T11:44:07;16.10;;;10.10;;
50709;SDS011;37033;49.994;21.992;2023-09-30T11:46:50;18.10;;;10.20;;
50709;SDS011;37033;49.994;21.992;2023-09-30T11:49:25;13.40;;;10.20;;
50709;SDS011;37033;49.994;21.992;2023-09-30T11:51:57;15.10;;;11.60;;
50709;SDS011;37033;49.994;21.992;2023-09-30T11:54:29;16.60;;;10.90;;
50709;SDS011;37033;49.994;21.992;2023-09-30T11:57:01;13.30;;;10.50;;
50709;SDS011;37033;49.994;21.992;2023-09-30T11:59:32;11.90;;;10.10;;
50709;SDS011;37033;49.994;21.992;2023-09-30T12:02:03;15.00;;;9.90;;
50709;SDS011;37033;49.994;21.992;2023-09-30T12:04:34;16.80;;;10.30;;
50709;SDS011;37033;49.994;21.992;2023-09-30T12:07:05;14.40;;;10.80;;
50709;SDS011;37033;49.994;21.992;2023-09-30T12:09:36;14.50;;;11.10;;
50709;SDS011;37033;49.994;21.992;2023-09-30T12:12:07;12.80;;;9.90;;
50709;SDS011;37033;49.994;21.992;2023-09-30T12:14:39;12.80;;;9.70;;
50709;SDS011;37033;49.994;21.992;2023-09-30T12:17:10;21.50;;;13.60;;
50709;SDS011;37033;49.994;21.992;2023-09-30T12:19:42;17.50;;;12.50;;
50709;SDS011;37033;49.994;21.992;2023-09-30T12:22:14;19.20;;;13.20;;
50709;SDS011;37033;49.994;21.992;2023-09-30T12:24:45;13.10;;;10.20;;
50709;SDS011;37033;49.994;21.992;2023-09-30T12:27:16;14.20;;;10.30;;
50709;SDS011;37033;49.994;21.992;2023-09-30T12:29:46;12.50;;;10.70;;
50709;SDS011;37033;49.994;21.992;2023-09-30T12:32:17;16.70;;;10.40;;
50709;SDS011;37033;49.994;21.992;2023-09-30T12:34:48;14.50;;;10.50;;
50709;SDS011;37033;49.994;21.992;2023-09-30T12:37:19;13.20;;;10.00;;
50709;SDS011;37033;49.994;21.992;2023-09-30T12:39:50;12.40;;;11.10;;
50709;SDS011;37033;49.994;21.992;2023-09-30T12:42:21;14.70;;;11.60;;
50709;SDS011;37033;49.994;21.992;2023-09-30T12:44:52;15.10;;;11.10;;
50709;SDS011;37033;49.994;21.992;2023-09-30T12:47:22;16.20;;;10.80;;
50709;SDS011;37033;49.994;21.992;2023-09-30T12:49:53;13.30;;;10.90;;
50709;SDS011;37033;49.994;21.992;2023-09-30T12:52:24;12.10;;;10.80;;
50709;SDS011;37033;49.994;21.992;2023-09-30T12:54:55;12.70;;;11.20;;
50709;SDS011;37033;49.994;21.992;2023-09-30T12:57:26;13.70;;;11.40;;
50709;SDS011;37033;49.994;21.992;2023-09-30T12:59:57;13.30;;;11.70;;
50709;SDS011;37033;49.994;21.992;2023-09-30T13:02:27;13.00;;;11.50;;
50709;SDS011;37033;49.994;21.992;2023-09-30T13:04:58;13.50;;;11.50;;
50709;SDS011;37033;49.994;21.992;2023-09-30T13:07:29;13.80;;;11.30;;
50709;SDS011;37033;49.994;21.992;2023-09-30T13:10:00;13.50;;;11.80;;
50709;SDS011;37033;49.994;21.992;2023-09-30T13:12:33;16.10;;;11.10;;
50709;SDS011;37033;49.994;21.992;2023-09-30T13:15:05;14.80;;;11.90;;
50709;SDS011;37033;49.994;21.992;2023-09-30T13:17:37;14.40;;;12.00;;
50709;SDS011;37033;49.994;21.992;2023-09-30T13:20:09;17.40;;;13.10;;
50709;SDS011;37033;49.994;21.992;2023-09-30T13:22:40;16.70;;;11.70;;
50709;SDS011;37033;49.994;21.992;2023-09-30T13:25:11;17.70;;;12.00;;
50709;SDS011;37033;49.994;21.992;2023-09-30T13:27:43;18.70;;;12.20;;
50709;SDS011;37033;49.994;21.992;2023-09-30T13:30:14;16.10;;;12.90;;
50709;SDS011;37033;49.994;21.992;2023-09-30T13:32:46;16.90;;;13.20;;
50709;SDS011;37033;49.994;21.992;2023-09-30T13:35:17;16.50;;;12.30;;
50709;SDS011;37033;49.994;21.992;2023-09-30T13:37:48;14.00;;;12.30;;
50709;SDS011;37033;49.994;21.992;2023-09-30T13:40:19;17.00;;;13.20;;
50709;SDS011;37033;49.994;21.992;2023-09-30T13:42:50;19.00;;;12.70;;
50709;SDS011;37033;49.994;21.992;2023-09-30T13:45:21;17.50;;;12.70;;
50709;SDS011;37033;49.994;21.992;2023-09-30T13:47:52;18.10;;;13.80;;
50709;SDS011;37033;49.994;21.992;2023-09-30T13:50:23;18.00;;;13.20;;
50709;SDS011;37033;49.994;21.992;2023-09-30T13:52:54;17.50;;;12.60;;
50709;SDS011;37033;49.994;21.992;2023-09-30T13:55:25;17.50;;;12.70;;
50709;SDS011;37033;49.994;21.992;2023-09-30T13:57:56;16.30;;;13.30;;
50709;SDS011;37033;49.994;21.992;2023-09-30T14:00:27;20.30;;;13.60;;
50709;SDS011;37033;49.994;21.992;2023-09-30T14:02:57;17.10;;;13.10;;
50709;SDS011;37033;49.994;21.992;2023-09-30T14:05:30;17.00;;;13.60;;
50709;SDS011;37033;49.994;21.992;2023-09-30T14:08:01;16.30;;;14.00;;
50709;SDS011;37033;49.994;21.992;2023-09-30T14:10:35;16.40;;;14.00;;
50709;SDS011;37033;49.994;21.992;2023-09-30T14:13:06;19.00;;;14.60;;
50709;SDS011;37033;49.994;21.992;2023-09-30T14:15:37;17.30;;;14.10;;
50709;SDS011;37033;49.994;21.992;2023-09-30T14:18:08;23.20;;;14.60;;
50709;SDS011;37033;49.994;21.992;2023-09-30T14:20:39;21.90;;;14.90;;
50709;SDS011;37033;49.994;21.992;2023-09-30T14:23:10;20.40;;;14.80;;
50709;SDS011;37033;49.994;21.992;2023-09-30T14:25:41;19.90;;;15.20;;
50709;SDS011;37033;49.994;21.992;2023-09-30T14:28:12;20.50;;;15.80;;
50709;SDS011;37033;49.994;21.992;2023-09-30T14:30:42;20.40;;;15.10;;
50709;SDS011;37033;49.994;21.992;2023-09-30T14:33:13;24.70;;;15.80;;
50709;SDS011;37033;49.994;21.992;2023-09-30T14:35:44;20.40;;;16.20;;
50709;SDS011;37033;49.994;21.992;2023-09-30T14:38:16;24.80;;;17.50;;
50709;SDS011;37033;49.994;21.992;2023-09-30T14:40:47;23.80;;;17.50;;
50709;SDS011;37033;49.994;21.992;2023-09-30T14:43:18;26.60;;;18.50;;
50709;SDS011;37033;49.994;21.992;2023-09-30T14:45:48;25.60;;;18.30;;
50709;SDS011;37033;49.994;21.992;2023-09-30T14:48:19;24.30;;;17.70;;
50709;SDS011;37033;49.994;21.992;2023-09-30T14:50:50;24.40;;;18.30;;
50709;SDS011;37033;49.994;21.992;2023-09-30T14:53:21;27.80;;;19.10;;
50709;SDS011;37033;49.994;21.992;2023-09-30T14:55:52;27.80;;;20.10;;
50709;SDS011;37033;49.994;21.992;2023-09-30T14:58:23;28.00;;;19.20;;
50709;SDS011;37033;49.994;21.992;2023-09-30T15:00:54;29.50;;;18.40;;
50709;SDS011;37033;49.994;21.992;2023-09-30T15:03:24;28.80;;;19.50;;
50709;SDS011;37033;49.994;21.992;2023-09-30T15:05:58;26.70;;;18.50;;
50709;SDS011;37033;49.994;21.992;2023-09-30T15:11:00;24.40;;;18.60;;